Aviation Digital Data Service (ADDS)

Output produced by METARs form (1905 UTC 20 April 2014)
found at http://aviationweather.gov/adds/metars/
 
KPVD 201726Z 2018/2118 11008KT P6SM SCT250 
     FM210300 14004KT P6SM SKC 
     FM210600 00000KT P6SM FEW200 
     FM211700 16007KT P6SM FEW140